sensor_id;sensor_type;location;lat;lon;timestamp;pressure;altitude;pressure_sealevel;temperature;humidity
61898;BME280;47850;50.274;18.908;2023-04-06T00:01:20;98453.73;;;-2.41;67.13
61898;BME280;47850;50.274;18.908;2023-04-06T00:03:47;98453.46;;;-2.43;67.05
61898;BME280;47850;50.274;18.908;2023-04-06T00:06:15;98457.98;;;-2.44;67.15
61898;BME280;47850;50.274;18.908;2023-04-06T00:08:43;98458.27;;;-2.48;66.91
61898;BME280;47850;50.274;18.908;2023-04-06T00:11:12;98458.34;;;-2.50;66.95
61898;BME280;47850;50.274;18.908;2023-04-06T00:13:39;98463.36;;;-2.53;66.91
61898;BME280;47850;50.274;18.908;2023-04-06T00:16:07;98461.17;;;-2.56;67.02
61898;BME280;47850;50.274;18.908;2023-04-06T00:18:35;98458.63;;;-2.59;67.22
61898;BME280;47850;50.274;18.908;2023-04-06T00:21:03;98456.32;;;-2.61;67.52
61898;BME280;47850;50.274;18.908;2023-04-06T00:23:31;98456.49;;;-2.62;67.69
61898;BME280;47850;50.274;18.908;2023-04-06T00:25:58;98454.70;;;-2.63;67.86
61898;BME280;47850;50.274;18.908;2023-04-06T00:28:26;98452.35;;;-2.63;67.92
61898;BME280;47850;50.274;18.908;2023-04-06T00:30:54;98450.75;;;-2.64;68.22
61898;BME280;47850;50.274;18.908;2023-04-06T00:33:23;98451.45;;;-2.65;68.25
61898;BME280;47850;50.274;18.908;2023-04-06T00:35:50;98446.49;;;-2.67;68.51
61898;BME280;47850;50.274;18.908;2023-04-06T00:38:18;98447.58;;;-2.68;68.80
61898;BME280;47850;50.274;18.908;2023-04-06T00:40:46;98448.79;;;-2.69;68.62
61898;BME280;47850;50.274;18.908;2023-04-06T00:43:14;98447.71;;;-2.69;68.68
61898;BME280;47850;50.274;18.908;2023-04-06T00:45:41;98444.48;;;-2.69;68.94
61898;BME280;47850;50.274;18.908;2023-04-06T00:48:09;98443.75;;;-2.70;69.00
61898;BME280;47850;50.274;18.908;2023-04-06T00:50:37;98444.07;;;-2.69;69.21
61898;BME280;47850;50.274;18.908;2023-04-06T00:53:04;98443.58;;;-2.70;69.13
61898;BME280;47850;50.274;18.908;2023-04-06T00:55:32;98440.09;;;-2.70;69.07
61898;BME280;47850;50.274;18.908;2023-04-06T00:58:00;98444.21;;;-2.71;69.25
61898;BME280;47850;50.274;18.908;2023-04-06T01:00:28;98442.02;;;-2.70;69.41
61898;BME280;47850;50.274;18.908;2023-04-06T01:02:56;98440.46;;;-2.70;69.50
61898;BME280;47850;50.274;18.908;2023-04-06T01:05:23;98441.42;;;-2.71;69.53
61898;BME280;47850;50.274;18.908;2023-04-06T01:07:51;98438.81;;;-2.73;69.66
61898;BME280;47850;50.274;18.908;2023-04-06T01:10:26;98438.05;;;-2.74;69.66
61898;BME280;47850;50.274;18.908;2023-04-06T01:12:53;98436.72;;;-2.77;69.88
61898;BME280;47850;50.274;18.908;2023-04-06T01:15:21;98437.39;;;-2.78;69.96
61898;BME280;47850;50.274;18.908;2023-04-06T01:17:49;98431.59;;;-2.82;70.32
61898;BME280;47850;50.274;18.908;2023-04-06T01:20:17;98436.23;;;-2.79;70.26
61898;BME280;47850;50.274;18.908;2023-04-06T01:22:44;98436.98;;;-2.81;70.54
61898;BME280;47850;50.274;18.908;2023-04-06T01:25:12;98438.41;;;-2.81;70.45
61898;BME280;47850;50.274;18.908;2023-04-06T01:27:40;98437.40;;;-2.81;70.35
61898;BME280;47850;50.274;18.908;2023-04-06T01:30:08;98437.54;;;-2.82;70.47
61898;BME280;47850;50.274;18.908;2023-04-06T01:32:36;98437.48;;;-2.84;70.29
61898;BME280;47850;50.274;18.908;2023-04-06T01:35:03;98433.19;;;-2.85;70.57
61898;BME280;47850;50.274;18.908;2023-04-06T01:37:31;98433.05;;;-2.87;70.53
61898;BME280;47850;50.274;18.908;2023-04-06T01:40:00;98431.88;;;-2.89;70.38
61898;BME280;47850;50.274;18.908;2023-04-06T01:42:28;98431.10;;;-2.89;70.66
61898;BME280;47850;50.274;18.908;2023-04-06T01:44:55;98427.64;;;-2.89;70.77
61898;BME280;47850;50.274;18.908;2023-04-06T01:47:23;98429.46;;;-2.89;70.96
61898;BME280;47850;50.274;18.908;2023-04-06T01:49:50;98429.88;;;-2.90;71.14
61898;BME280;47850;50.274;18.908;2023-04-06T01:52:19;98430.22;;;-2.91;70.92
61898;BME280;47850;50.274;18.908;2023-04-06T01:54:48;98424.96;;;-2.91;71.35
61898;BME280;47850;50.274;18.908;2023-04-06T01:57:15;98427.48;;;-2.92;71.49
61898;BME280;47850;50.274;18.908;2023-04-06T01:59:43;98423.46;;;-2.92;71.51
61898;BME280;47850;50.274;18.908;2023-04-06T02:02:11;98424.20;;;-2.92;71.65
61898;BME280;47850;50.274;18.908;2023-04-06T02:04:40;98423.32;;;-2.93;71.85
61898;BME280;47850;50.274;18.908;2023-04-06T02:07:07;98423.41;;;-2.94;72.01
61898;BME280;47850;50.274;18.908;2023-04-06T02:09:35;98423.23;;;-2.95;71.97
61898;BME280;47850;50.274;18.908;2023-04-06T02:12:03;98424.17;;;-2.97;71.90
61898;BME280;47850;50.274;18.908;2023-04-06T02:14:30;98423.16;;;-2.98;72.16
61898;BME280;47850;50.274;18.908;2023-04-06T02:16:58;98422.92;;;-3.00;72.01
61898;BME280;47850;50.274;18.908;2023-04-06T02:19:26;98421.20;;;-3.02;72.03
61898;BME280;47850;50.274;18.908;2023-04-06T02:21:54;98423.27;;;-3.02;72.62
61898;BME280;47850;50.274;18.908;2023-04-06T02:24:22;98425.67;;;-3.02;72.57
61898;BME280;47850;50.274;18.908;2023-04-06T02:26:49;98425.05;;;-3.02;72.47
61898;BME280;47850;50.274;18.908;2023-04-06T02:29:17;98423.36;;;-3.03;72.55
61898;BME280;47850;50.274;18.908;2023-04-06T02:31:44;98420.51;;;-3.06;72.76
61898;BME280;47850;50.274;18.908;2023-04-06T02:34:12;98420.44;;;-3.09;73.22
61898;BME280;47850;50.274;18.908;2023-04-06T02:36:44;98419.74;;;-3.13;73.46
61898;BME280;47850;50.274;18.908;2023-04-06T02:39:12;98423.66;;;-3.15;73.59
61898;BME280;47850;50.274;18.908;2023-04-06T02:41:40;98420.35;;;-3.19;73.77
61898;BME280;47850;50.274;18.908;2023-04-06T02:44:08;98418.60;;;-3.23;73.93
61898;BME280;47850;50.274;18.908;2023-04-06T02:46:36;98419.58;;;-3.26;73.91
61898;BME280;47850;50.274;18.908;2023-04-06T02:49:03;98423.10;;;-3.30;74.14
61898;BME280;47850;50.274;18.908;2023-04-06T02:51:31;98421.58;;;-3.33;74.39
61898;BME280;47850;50.274;18.908;2023-04-06T02:54:00;98420.13;;;-3.35;74.31
61898;BME280;47850;50.274;18.908;2023-04-06T02:56:27;98425.89;;;-3.39;74.33
61898;BME280;47850;50.274;18.908;2023-04-06T02:58:55;98425.30;;;-3.41;74.54
61898;BME280;47850;50.274;18.908;2023-04-06T03:01:23;98425.16;;;-3.42;74.62
61898;BME280;47850;50.274;18.908;2023-04-06T03:03:50;98428.82;;;-3.43;74.51
61898;BME280;47850;50.274;18.908;2023-04-06T03:06:18;98431.95;;;-3.45;74.50
61898;BME280;47850;50.274;18.908;2023-04-06T03:08:46;98430.04;;;-3.45;74.61
61898;BME280;47850;50.274;18.908;2023-04-06T03:11:14;98428.77;;;-3.46;74.61
61898;BME280;47850;50.274;18.908;2023-04-06T03:13:42;98430.02;;;-3.47;74.53
61898;BME280;47850;50.274;18.908;2023-04-06T03:16:10;98425.86;;;-3.49;74.57
61898;BME280;47850;50.274;18.908;2023-04-06T03:18:37;98430.87;;;-3.50;74.64
61898;BME280;47850;50.274;18.908;2023-04-06T03:21:05;98431.14;;;-3.53;74.80
61898;BME280;47850;50.274;18.908;2023-04-06T03:23:32;98434.05;;;-3.53;75.08
61898;BME280;47850;50.274;18.908;2023-04-06T03:26:01;98430.04;;;-3.54;74.96
61898;BME280;47850;50.274;18.908;2023-04-06T03:28:28;98434.77;;;-3.55;75.10
61898;BME280;47850;50.274;18.908;2023-04-06T03:30:56;98432.23;;;-3.55;75.07
61898;BME280;47850;50.274;18.908;2023-04-06T03:33:24;98436.55;;;-3.56;75.37
61898;BME280;47850;50.274;18.908;2023-04-06T03:35:54;98431.59;;;-3.57;75.26
61898;BME280;47850;50.274;18.908;2023-04-06T03:38:22;98433.83;;;-3.59;75.30
61898;BME280;47850;50.274;18.908;2023-04-06T03:40:50;98436.80;;;-3.61;75.23
61898;BME280;47850;50.274;18.908;2023-04-06T03:43:17;98437.52;;;-3.62;75.41
61898;BME280;47850;50.274;18.908;2023-04-06T03:45:45;98436.59;;;-3.63;75.62
61898;BME280;47850;50.274;18.908;2023-04-06T03:48:13;98440.89;;;-3.65;75.64
61898;BME280;47850;50.274;18.908;2023-04-06T03:50:40;98446.02;;;-3.66;75.41
61898;BME280;47850;50.274;18.908;2023-04-06T03:53:08;98442.77;;;-3.68;75.57
61898;BME280;47850;50.274;18.908;2023-04-06T03:55:36;98440.25;;;-3.71;75.51
61898;BME280;47850;50.274;18.908;2023-04-06T03:58:03;98438.31;;;-3.73;75.51
61898;BME280;47850;50.274;18.908;2023-04-06T04:00:31;98441.35;;;-3.75;75.47
61898;BME280;47850;50.274;18.908;2023-04-06T04:03:00;98440.31;;;-3.77;75.39
61898;BME280;47850;50.274;18.908;2023-04-06T04:05:29;98442.39;;;-3.79;75.45
61898;BME280;47850;50.274;18.908;2023-04-06T04:07:57;98445.56;;;-3.81;75.39
61898;BME280;47850;50.274;18.908;2023-04-06T04:10:24;98447.18;;;-3.83;75.61
61898;BME280;47850;50.274;18.908;2023-04-06T04:12:52;98444.39;;;-3.83;75.65
61898;BME280;47850;50.274;18.908;2023-04-06T04:15:20;98449.45;;;-3.84;75.90
61898;BME280;47850;50.274;18.908;2023-04-06T04:17:47;98448.50;;;-3.85;75.94
61898;BME280;47850;50.274;18.908;2023-04-06T04:20:16;98446.86;;;-3.85;76.00
61898;BME280;47850;50.274;18.908;2023-04-06T04:22:44;98450.46;;;-3.85;76.03
61898;BME280;47850;50.274;18.908;2023-04-06T04:25:11;98445.75;;;-3.84;76.18
61898;BME280;47850;50.274;18.908;2023-04-06T04:27:39;98449.98;;;-3.84;76.26
61898;BME280;47850;50.274;18.908;2023-04-06T04:30:07;98449.28;;;-3.84;76.37
61898;BME280;47850;50.274;18.908;2023-04-06T04:32:35;98450.14;;;-3.84;76.36
61898;BME280;47850;50.274;18.908;2023-04-06T04:35:03;98451.08;;;-3.83;76.30
61898;BME280;47850;50.274;18.908;2023-04-06T04:37:31;98449.54;;;-3.82;76.33
61898;BME280;47850;50.274;18.908;2023-04-06T04:39:58;98446.66;;;-3.81;76.28
61898;BME280;47850;50.274;18.908;2023-04-06T04:42:26;98444.77;;;-3.80;76.43
61898;BME280;47850;50.274;18.908;2023-04-06T04:44:54;98448.89;;;-3.77;76.19
61898;BME280;47850;50.274;18.908;2023-04-06T04:47:21;98448.52;;;-3.76;76.21
61898;BME280;47850;50.274;18.908;2023-04-06T04:49:49;98448.60;;;-3.73;76.35
61898;BME280;47850;50.274;18.908;2023-04-06T04:52:16;98448.86;;;-3.70;76.35
61898;BME280;47850;50.274;18.908;2023-04-06T04:54:44;98449.59;;;-3.66;76.29
61898;BME280;47850;50.274;18.908;2023-04-06T04:57:14;98450.79;;;-3.62;76.15
61898;BME280;47850;50.274;18.908;2023-04-06T04:59:42;98453.48;;;-3.57;76.12
61898;BME280;47850;50.274;18.908;2023-04-06T05:02:10;98449.71;;;-3.52;75.96
61898;BME280;47850;50.274;18.908;2023-04-06T05:04:38;98446.05;;;-3.46;76.03
61898;BME280;47850;50.274;18.908;2023-04-06T05:07:06;98444.19;;;-3.41;75.86
61898;BME280;47850;50.274;18.908;2023-04-06T05:09:34;98443.95;;;-3.34;75.74
61898;BME280;47850;50.274;18.908;2023-04-06T05:12:02;98442.11;;;-3.27;75.54
61898;BME280;47850;50.274;18.908;2023-04-06T05:14:30;98445.78;;;-3.22;75.34
61898;BME280;47850;50.274;18.908;2023-04-06T05:16:57;98440.91;;;-3.15;75.40
61898;BME280;47850;50.274;18.908;2023-04-06T05:19:25;98444.43;;;-3.08;75.38
61898;BME280;47850;50.274;18.908;2023-04-06T05:21:53;98438.65;;;-2.98;75.40
61898;BME280;47850;50.274;18.908;2023-04-06T05:24:20;98436.30;;;-2.88;75.38
61898;BME280;47850;50.274;18.908;2023-04-06T05:26:48;98438.86;;;-2.79;75.25
61898;BME280;47850;50.274;18.908;2023-04-06T05:29:16;98438.84;;;-2.68;75.12
61898;BME280;47850;50.274;18.908;2023-04-06T05:31:44;98440.35;;;-2.56;74.69
61898;BME280;47850;50.274;18.908;2023-04-06T05:34:12;98440.67;;;-2.47;74.24
61898;BME280;47850;50.274;18.908;2023-04-06T05:36:40;98440.09;;;-2.37;73.87
61898;BME280;47850;50.274;18.908;2023-04-06T05:39:08;98436.27;;;-2.30;73.46
61898;BME280;47850;50.274;18.908;2023-04-06T05:41:36;98438.27;;;-2.20;73.31
61898;BME280;47850;50.274;18.908;2023-04-06T05:44:03;98440.33;;;-2.11;73.03
61898;BME280;47850;50.274;18.908;2023-04-06T05:46:31;98441.00;;;-2.00;72.87
61898;BME280;47850;50.274;18.908;2023-04-06T05:48:58;98439.96;;;-1.92;72.56
61898;BME280;47850;50.274;18.908;2023-04-06T05:51:26;98437.15;;;-1.84;72.38
61898;BME280;47850;50.274;18.908;2023-04-06T05:53:54;98435.98;;;-1.78;72.25
61898;BME280;47850;50.274;18.908;2023-04-06T05:56:22;98436.95;;;-1.70;72.26
61898;BME280;47850;50.274;18.908;2023-04-06T05:58:51;98435.60;;;-1.61;71.91
61898;BME280;47850;50.274;18.908;2023-04-06T06:01:18;98437.21;;;-1.53;71.41
61898;BME280;47850;50.274;18.908;2023-04-06T06:03:46;98434.39;;;-1.45;70.70
61898;BME280;47850;50.274;18.908;2023-04-06T06:06:14;98433.88;;;-1.36;70.32
61898;BME280;47850;50.274;18.908;2023-04-06T06:08:41;98434.12;;;-1.27;69.97
61898;BME280;47850;50.274;18.908;2023-04-06T06:11:09;98433.80;;;-1.20;69.91
61898;BME280;47850;50.274;18.908;2023-04-06T06:13:37;98431.19;;;-1.10;69.64
61898;BME280;47850;50.274;18.908;2023-04-06T06:16:05;98430.17;;;-1.01;69.10
61898;BME280;47850;50.274;18.908;2023-04-06T06:18:32;98425.34;;;-0.90;68.40
61898;BME280;47850;50.274;18.908;2023-04-06T06:21:00;98431.01;;;-0.79;67.19
61898;BME280;47850;50.274;18.908;2023-04-06T06:23:28;98427.09;;;-0.71;66.37
61898;BME280;47850;50.274;18.908;2023-04-06T06:25:55;98427.34;;;-0.63;65.56
61898;BME280;47850;50.274;18.908;2023-04-06T06:28:25;98428.33;;;-0.54;65.59
61898;BME280;47850;50.274;18.908;2023-04-06T06:30:53;98429.59;;;-0.42;64.88
61898;BME280;47850;50.274;18.908;2023-04-06T06:33:21;98433.22;;;-0.31;63.84
61898;BME280;47850;50.274;18.908;2023-04-06T06:35:49;98430.27;;;-0.25;62.68
61898;BME280;47850;50.274;18.908;2023-04-06T06:38:16;98429.52;;;-0.18;63.09
61898;BME280;47850;50.274;18.908;2023-04-06T06:40:45;98432.78;;;-0.09;62.66
61898;BME280;47850;50.274;18.908;2023-04-06T06:43:13;98436.48;;;0.01;62.58
61898;BME280;47850;50.274;18.908;2023-04-06T06:45:41;98438.34;;;0.10;62.11
61898;BME280;47850;50.274;18.908;2023-04-06T06:48:09;98437.83;;;0.16;60.73
61898;BME280;47850;50.274;18.908;2023-04-06T06:50:37;98441.41;;;0.18;60.67
61898;BME280;47850;50.274;18.908;2023-04-06T06:53:04;98437.54;;;0.21;60.09
61898;BME280;47850;50.274;18.908;2023-04-06T06:55:33;98439.89;;;0.23;59.95
61898;BME280;47850;50.274;18.908;2023-04-06T06:58:00;98440.55;;;0.28;59.77
61898;BME280;47850;50.274;18.908;2023-04-06T07:00:28;98439.70;;;0.32;59.60
61898;BME280;47850;50.274;18.908;2023-04-06T07:02:56;98438.96;;;0.34;58.96
61898;BME280;47850;50.274;18.908;2023-04-06T07:05:24;98440.33;;;0.35;59.17
61898;BME280;47850;50.274;18.908;2023-04-06T07:07:52;98441.23;;;0.38;59.07
61898;BME280;47850;50.274;18.908;2023-04-06T07:10:19;98440.09;;;0.45;58.60
61898;BME280;47850;50.274;18.908;2023-04-06T07:12:47;98443.58;;;0.49;57.90
61898;BME280;47850;50.274;18.908;2023-04-06T07:15:16;98446.02;;;0.50;57.70
61898;BME280;47850;50.274;18.908;2023-04-06T07:17:46;98442.92;;;0.52;57.44
61898;BME280;47850;50.274;18.908;2023-04-06T07:20:14;98447.79;;;0.62;57.94
61898;BME280;47850;50.274;18.908;2023-04-06T07:22:42;98444.60;;;0.76;58.11
61898;BME280;47850;50.274;18.908;2023-04-06T07:25:11;98445.95;;;0.94;57.92
61898;BME280;47850;50.274;18.908;2023-04-06T07:27:38;98446.22;;;1.12;57.65
61898;BME280;47850;50.274;18.908;2023-04-06T07:30:06;98448.29;;;1.29;57.12
61898;BME280;47850;50.274;18.908;2023-04-06T07:32:34;98449.03;;;1.48;56.65
61898;BME280;47850;50.274;18.908;2023-04-06T07:35:03;98449.53;;;1.60;54.31
61898;BME280;47850;50.274;18.908;2023-04-06T07:37:30;98446.89;;;1.65;54.05
61898;BME280;47850;50.274;18.908;2023-04-06T07:39:58;98449.33;;;1.72;54.27
61898;BME280;47850;50.274;18.908;2023-04-06T07:42:26;98455.27;;;1.74;52.63
61898;BME280;47850;50.274;18.908;2023-04-06T07:44:53;98451.39;;;1.81;52.99
61898;BME280;47850;50.274;18.908;2023-04-06T07:47:21;98452.67;;;1.91;53.04
61898;BME280;47850;50.274;18.908;2023-04-06T07:49:49;98446.02;;;2.05;52.63
61898;BME280;47850;50.274;18.908;2023-04-06T07:52:17;98446.86;;;2.18;52.37
61898;BME280;47850;50.274;18.908;2023-04-06T07:54:48;98446.19;;;2.28;52.16
61898;BME280;47850;50.274;18.908;2023-04-06T07:57:17;98441.67;;;2.37;52.31
61898;BME280;47850;50.274;18.908;2023-04-06T07:59:45;98445.54;;;2.45;51.43
61898;BME280;47850;50.274;18.908;2023-04-06T08:02:12;98443.29;;;2.44;51.20
61898;BME280;47850;50.274;18.908;2023-04-06T08:04:40;98445.52;;;2.48;51.06
61898;BME280;47850;50.274;18.908;2023-04-06T08:07:08;98440.04;;;2.51;51.17
61898;BME280;47850;50.274;18.908;2023-04-06T08:09:35;98442.80;;;2.52;51.06
61898;BME280;47850;50.274;18.908;2023-04-06T08:12:03;98442.20;;;2.46;50.58
61898;BME280;47850;50.274;18.908;2023-04-06T08:14:31;98438.39;;;2.45;51.17
61898;BME280;47850;50.274;18.908;2023-04-06T08:16:59;98438.56;;;2.47;50.88
61898;BME280;47850;50.274;18.908;2023-04-06T08:19:26;98434.27;;;2.49;51.15
61898;BME280;47850;50.274;18.908;2023-04-06T08:21:54;98431.92;;;2.53;51.09
61898;BME280;47850;50.274;18.908;2023-04-06T08:24:22;98435.23;;;2.57;50.24
61898;BME280;47850;50.274;18.908;2023-04-06T08:26:49;98433.19;;;2.59;50.10
61898;BME280;47850;50.274;18.908;2023-04-06T08:29:18;98435.84;;;2.67;50.27
61898;BME280;47850;50.274;18.908;2023-04-06T08:31:46;98430.05;;;2.84;50.12
61898;BME280;47850;50.274;18.908;2023-04-06T08:34:14;98434.77;;;2.94;49.50
61898;BME280;47850;50.274;18.908;2023-04-06T08:36:42;98424.88;;;2.95;49.22
61898;BME280;47850;50.274;18.908;2023-04-06T08:39:10;98423.92;;;3.02;49.62
61898;BME280;47850;50.274;18.908;2023-04-06T08:41:37;98425.86;;;3.15;49.52
61898;BME280;47850;50.274;18.908;2023-04-06T08:44:05;98429.77;;;3.27;49.07
61898;BME280;47850;50.274;18.908;2023-04-06T08:46:33;98426.67;;;3.35;48.27
61898;BME280;47850;50.274;18.908;2023-04-06T08:49:02;98420.96;;;3.35;47.98
61898;BME280;47850;50.274;18.908;2023-04-06T08:51:30;98418.26;;;3.29;47.77
61898;BME280;47850;50.274;18.908;2023-04-06T08:53:58;98415.83;;;3.34;48.50
61898;BME280;47850;50.274;18.908;2023-04-06T08:56:27;98417.98;;;3.46;48.36
61898;BME280;47850;50.274;18.908;2023-04-06T08:58:55;98413.83;;;3.52;47.40
61898;BME280;47850;50.274;18.908;2023-04-06T09:01:25;98413.48;;;3.62;47.59
61898;BME280;47850;50.274;18.908;2023-04-06T09:03:55;98414.18;;;3.76;46.97
61898;BME280;47850;50.274;18.908;2023-04-06T09:06:24;98411.17;;;3.84;46.99
61898;BME280;47850;50.274;18.908;2023-04-06T09:08:52;98408.79;;;3.87;46.67
61898;BME280;47850;50.274;18.908;2023-04-06T09:11:19;98412.41;;;3.87;46.72
61898;BME280;47850;50.274;18.908;2023-04-06T09:13:48;98409.28;;;3.87;46.35
61898;BME280;47850;50.274;18.908;2023-04-06T09:16:16;98406.27;;;3.92;46.06
61898;BME280;47850;50.274;18.908;2023-04-06T09:18:44;98407.67;;;3.94;45.76
61898;BME280;47850;50.274;18.908;2023-04-06T09:21:12;98413.23;;;4.06;46.16
61898;BME280;47850;50.274;18.908;2023-04-06T09:23:40;98411.27;;;4.23;46.02
61898;BME280;47850;50.274;18.908;2023-04-06T09:26:14;98414.81;;;4.45;45.91
61898;BME280;47850;50.274;18.908;2023-04-06T09:31:15;98407.06;;;4.55;44.54
61898;BME280;47850;50.274;18.908;2023-04-06T09:33:44;98402.95;;;4.57;44.62
61898;BME280;47850;50.274;18.908;2023-04-06T09:36:12;98398.25;;;4.55;45.00
61898;BME280;47850;50.274;18.908;2023-04-06T09:43:52;98390.91;;;4.88;44.74
61898;BME280;47850;50.274;18.908;2023-04-06T09:46:29;98388.55;;;4.98;43.96
61898;BME280;47850;50.274;18.908;2023-04-06T09:48:58;98384.67;;;5.06;43.93
61898;BME280;47850;50.274;18.908;2023-04-06T09:51:27;98387.20;;;5.07;43.61
61898;BME280;47850;50.274;18.908;2023-04-06T09:53:55;98389.24;;;5.12;43.94
61898;BME280;47850;50.274;18.908;2023-04-06T09:56:31;98384.92;;;5.20;43.51
61898;BME280;47850;50.274;18.908;2023-04-06T09:59:02;98387.21;;;5.29;43.46
61898;BME280;47850;50.274;18.908;2023-04-06T10:01:31;98381.23;;;5.33;43.34
61898;BME280;47850;50.274;18.908;2023-04-06T10:04:03;98375.64;;;5.45;43.69
61898;BME280;47850;50.274;18.908;2023-04-06T10:06:34;98371.22;;;5.58;43.15
61898;BME280;47850;50.274;18.908;2023-04-06T10:09:04;98368.86;;;5.63;42.35
61898;BME280;47850;50.274;18.908;2023-04-06T10:11:32;98359.03;;;5.54;41.99
61898;BME280;47850;50.274;18.908;2023-04-06T10:14:01;98360.21;;;5.63;42.88
61898;BME280;47850;50.274;18.908;2023-04-06T10:20:11;98365.21;;;5.88;41.74
61898;BME280;47850;50.274;18.908;2023-04-06T10:22:45;98357.47;;;5.94;41.41
61898;BME280;47850;50.274;18.908;2023-04-06T10:25:27;98356.35;;;6.00;41.29
61898;BME280;47850;50.274;18.908;2023-04-06T10:30:29;98356.91;;;6.17;41.27
61898;BME280;47850;50.274;18.908;2023-04-06T10:32:57;98353.58;;;6.26;41.35
61898;BME280;47850;50.274;18.908;2023-04-06T10:35:25;98354.17;;;6.37;40.59
61898;BME280;47850;50.274;18.908;2023-04-06T10:38:03;98347.13;;;6.42;40.12
61898;BME280;47850;50.274;18.908;2023-04-06T10:40:32;98349.21;;;6.39;39.92
61898;BME280;47850;50.274;18.908;2023-04-06T10:43:09;98346.71;;;6.34;40.11
61898;BME280;47850;50.274;18.908;2023-04-06T10:45:38;98344.55;;;6.39;40.50
61898;BME280;47850;50.274;18.908;2023-04-06T10:48:12;98335.60;;;6.46;40.17
61898;BME280;47850;50.274;18.908;2023-04-06T10:50:41;98333.34;;;6.45;39.89
61898;BME280;47850;50.274;18.908;2023-04-06T10:53:09;98332.44;;;6.43;39.95
61898;BME280;47850;50.274;18.908;2023-04-06T10:55:38;98338.88;;;6.38;40.04
61898;BME280;47850;50.274;18.908;2023-04-06T10:58:07;98336.77;;;6.33;40.08
61898;BME280;47850;50.274;18.908;2023-04-06T11:00:35;98341.81;;;6.23;39.89
61898;BME280;47850;50.274;18.908;2023-04-06T11:03:03;98334.50;;;6.05;40.03
61898;BME280;47850;50.274;18.908;2023-04-06T11:05:31;98332.02;;;5.88;40.29
61898;BME280;47850;50.274;18.908;2023-04-06T11:07:59;98329.74;;;5.69;40.28
61898;BME280;47850;50.274;18.908;2023-04-06T11:10:27;98329.16;;;5.54;40.40
61898;BME280;47850;50.274;18.908;2023-04-06T11:12:55;98331.07;;;5.44;40.87
61898;BME280;47850;50.274;18.908;2023-04-06T11:15:23;98328.40;;;5.39;40.98
61898;BME280;47850;50.274;18.908;2023-04-06T11:17:51;98325.29;;;5.42;40.95
61898;BME280;47850;50.274;18.908;2023-04-06T11:20:19;98327.94;;;5.57;41.33
61898;BME280;47850;50.274;18.908;2023-04-06T11:22:51;98330.00;;;5.72;40.63
61898;BME280;47850;50.274;18.908;2023-04-06T11:25:19;98324.05;;;5.71;40.40
61898;BME280;47850;50.274;18.908;2023-04-06T11:27:47;98323.53;;;5.68;40.54
61898;BME280;47850;50.274;18.908;2023-04-06T11:30:15;98325.64;;;5.68;40.36
61898;BME280;47850;50.274;18.908;2023-04-06T11:32:44;98321.44;;;5.73;40.33
61898;BME280;47850;50.274;18.908;2023-04-06T11:35:19;98318.39;;;5.81;40.47
61898;BME280;47850;50.274;18.908;2023-04-06T11:37:50;98319.13;;;5.97;40.74
61898;BME280;47850;50.274;18.908;2023-04-06T11:40:21;98318.67;;;6.11;39.95
61898;BME280;47850;50.274;18.908;2023-04-06T11:42:53;98323.86;;;6.24;39.66
61898;BME280;47850;50.274;18.908;2023-04-06T11:45:22;98320.23;;;6.24;39.19
61898;BME280;47850;50.274;18.908;2023-04-06T11:47:59;98316.38;;;6.18;39.39
61898;BME280;47850;50.274;18.908;2023-04-06T11:50:33;98313.48;;;6.22;39.82
61898;BME280;47850;50.274;18.908;2023-04-06T11:53:02;98308.39;;;6.22;39.47
61898;BME280;47850;50.274;18.908;2023-04-06T11:55:36;98302.49;;;6.26;39.57
61898;BME280;47850;50.274;18.908;2023-04-06T11:58:04;98302.27;;;6.31;39.59
61898;BME280;47850;50.274;18.908;2023-04-06T12:00:32;98299.38;;;6.38;39.67
61898;BME280;47850;50.274;18.908;2023-04-06T12:03:02;98296.84;;;6.43;39.32
61898;BME280;47850;50.274;18.908;2023-04-06T12:05:30;98296.44;;;6.32;39.33
61898;BME280;47850;50.274;18.908;2023-04-06T12:07:59;98303.83;;;6.19;39.79
61898;BME280;47850;50.274;18.908;2023-04-06T12:10:27;98297.99;;;6.11;39.84
61898;BME280;47850;50.274;18.908;2023-04-06T12:12:55;98300.20;;;5.94;39.89
61898;BME280;47850;50.274;18.908;2023-04-06T12:15:22;98297.98;;;5.68;39.70
61898;BME280;47850;50.274;18.908;2023-04-06T12:17:50;98299.61;;;5.41;40.06
61898;BME280;47850;50.274;18.908;2023-04-06T12:20:18;98299.12;;;5.27;40.48
61898;BME280;47850;50.274;18.908;2023-04-06T12:22:45;98292.22;;;5.23;40.91
61898;BME280;47850;50.274;18.908;2023-04-06T12:25:13;98291.79;;;5.24;41.23
61898;BME280;47850;50.274;18.908;2023-04-06T12:27:41;98290.73;;;5.29;41.39
61898;BME280;47850;50.274;18.908;2023-04-06T12:30:09;98285.77;;;5.25;41.05
61898;BME280;47850;50.274;18.908;2023-04-06T12:32:36;98282.84;;;5.19;41.39
61898;BME280;47850;50.274;18.908;2023-04-06T12:35:04;98283.31;;;5.14;41.19
61898;BME280;47850;50.274;18.908;2023-04-06T12:37:32;98282.84;;;5.03;41.15
61898;BME280;47850;50.274;18.908;2023-04-06T12:40:00;98275.20;;;4.89;41.34
61898;BME280;47850;50.274;18.908;2023-04-06T12:42:28;98280.86;;;4.78;41.90
61898;BME280;47850;50.274;18.908;2023-04-06T12:44:56;98280.77;;;4.67;41.96
61898;BME280;47850;50.274;18.908;2023-04-06T12:47:25;98275.41;;;4.58;42.17
61898;BME280;47850;50.274;18.908;2023-04-06T12:49:53;98269.27;;;4.52;42.56
61898;BME280;47850;50.274;18.908;2023-04-06T12:52:22;98269.42;;;4.53;42.92
61898;BME280;47850;50.274;18.908;2023-04-06T12:54:49;98269.63;;;4.58;43.29
61898;BME280;47850;50.274;18.908;2023-04-06T12:57:18;98266.77;;;4.67;43.82
61898;BME280;47850;50.274;18.908;2023-04-06T12:59:46;98266.88;;;4.67;43.42
61898;BME280;47850;50.274;18.908;2023-04-06T13:02:14;98268.67;;;4.54;43.92
61898;BME280;47850;50.274;18.908;2023-04-06T13:04:42;98265.46;;;4.44;44.47
61898;BME280;47850;50.274;18.908;2023-04-06T13:07:10;98269.08;;;4.36;44.99
61898;BME280;47850;50.274;18.908;2023-04-06T13:09:38;98263.11;;;4.27;45.58
61898;BME280;47850;50.274;18.908;2023-04-06T13:12:05;98259.02;;;4.22;45.67
61898;BME280;47850;50.274;18.908;2023-04-06T13:14:34;98264.64;;;4.22;46.02